Terminal Aerodrome Forecast
Issued by NWS

Home | Current Version | Previous Version | Text Only | Print | Product List | Glossary On
Versions: 1 2 3 4 5 6 7 8 9 10 11 12 13 14 15 16 17 18
269
FTUS43 KOAX 211720
TAFBFF
TAF
KBFF 211720Z 2118/2218 14008KT P6SM OVC008
      TEMPO 2118/2120 4SM -SN
     FM212000 13009KT P6SM OVC012
     FM220100 12008KT P6SM OVC035
     FM220900 11007KT 2SM BR BKN015
     FM221500 13008KT P6SM BKN045=

USA.gov is the U.S. government's official web portal to all federal, state and local government web resources and services.